createdAt,value
2023-04-29T00:01:30.634Z,19.52
2023-04-29T00:06:50.747Z,13.43
2023-04-29T00:09:31.181Z,13.70
2023-04-29T00:12:05.982Z,17.63
2023-04-29T00:14:43.177Z,18.95
2023-04-29T00:17:18.723Z,18.02
2023-04-29T00:19:56.819Z,17.98
2023-04-29T00:22:47.054Z,15.27
2023-04-29T00:25:19.635Z,23.45
2023-04-29T00:27:54.332Z,22.95
2023-04-29T00:30:35.619Z,17.48
2023-04-29T00:33:16.272Z,11.82
2023-04-29T00:35:59.732Z,12.93
2023-04-29T00:38:35.088Z,13.68
2023-04-29T00:41:19.778Z,14.63
2023-04-29T00:44:01.029Z,12.98
2023-04-29T00:46:34.695Z,15.07
2023-04-29T00:51:45.648Z,15.52
2023-04-29T00:54:27.873Z,19.90
2023-04-29T00:57:06.525Z,15.00
2023-04-29T00:59:47.286Z,22.63
2023-04-29T01:02:26.730Z,12.07
2023-04-29T01:05:02.316Z,16.90
2023-04-29T01:07:57.708Z,17.65
2023-04-29T01:10:43.677Z,18.48
2023-04-29T01:13:40.864Z,15.43
2023-04-29T01:16:42.099Z,19.00
2023-04-29T01:20:15.687Z,18.13
2023-04-29T01:23:08.700Z,16.20
2023-04-29T01:25:57.599Z,19.33
2023-04-29T01:29:29.738Z,16.85
2023-04-29T01:32:09.056Z,19.00
2023-04-29T01:35:23.620Z,17.58
2023-04-29T01:38:23.732Z,18.40
2023-04-29T01:41:26.577Z,20.95
2023-04-29T01:44:10.934Z,18.15
2023-04-29T01:46:57.202Z,16.13
2023-04-29T01:49:39.602Z,17.02
2023-04-29T01:52:16.609Z,20.58
2023-04-29T01:55:14.268Z,23.63
2023-04-29T01:58:13.436Z,18.13
2023-04-29T02:00:59.906Z,16.30
2023-04-29T02:03:46.233Z,22.13
2023-04-29T02:06:26.745Z,16.45
2023-04-29T02:09:07.708Z,21.77
2023-04-29T02:11:49.960Z,17.05
2023-04-29T02:14:30.812Z,16.65
2023-04-29T02:17:14.529Z,21.85
2023-04-29T02:19:56.091Z,18.73
2023-04-29T02:22:39.296Z,18.40
2023-04-29T02:25:17.968Z,22.80
2023-04-29T02:27:52.610Z,13.93
2023-04-29T02:30:28.016Z,17.45
2023-04-29T02:32:57.370Z,13.90
2023-04-29T02:35:39.124Z,14.85
2023-04-29T02:38:15.284Z,16.60
2023-04-29T02:40:51.462Z,14.07
2023-04-29T02:43:29.422Z,13.20
2023-04-29T02:46:11.043Z,17.67
2023-04-29T02:48:48.836Z,16.13
2023-04-29T02:51:19.147Z,18.25
2023-04-29T02:53:58.741Z,12.73
2023-04-29T02:56:34.234Z,14.35
2023-04-29T02:59:12.575Z,16.20
2023-04-29T03:01:47.966Z,17.50
2023-04-29T03:04:23.169Z,17.90
2023-04-29T03:07:07.990Z,17.95
2023-04-29T03:09:34.917Z,18.80
2023-04-29T03:12:13.891Z,15.00
2023-04-29T03:14:57.026Z,14.63
2023-04-29T03:17:34.404Z,19.58
2023-04-29T03:20:17.955Z,21.63
2023-04-29T03:22:51.060Z,15.75
2023-04-29T03:25:28.899Z,16.52
2023-04-29T03:28:15.070Z,14.32
2023-04-29T03:30:47.888Z,17.92
2023-04-29T03:33:31.204Z,15.35
2023-04-29T03:36:04.612Z,15.18
2023-04-29T03:39:18.350Z,12.65
2023-04-29T03:41:51.236Z,14.88
2023-04-29T03:44:29.148Z,11.70
2023-04-29T03:47:08.631Z,13.25
2023-04-29T03:49:49.465Z,13.27
2023-04-29T03:52:24.991Z,19.15
2023-04-29T03:55:03.636Z,12.70
2023-04-29T03:57:45.596Z,15.05
2023-04-29T04:00:26.984Z,15.27
2023-04-29T04:03:04.457Z,13.75
2023-04-29T04:05:55.189Z,12.93
2023-04-29T04:08:41.618Z,13.93
2023-04-29T04:11:24.721Z,13.30
2023-04-29T04:14:06.666Z,14.48
2023-04-29T04:16:46.949Z,20.13
2023-04-29T04:19:23.923Z,16.58
2023-04-29T04:22:07.693Z,12.10
2023-04-29T04:24:47.823Z,12.45
2023-04-29T04:27:20.170Z,12.55
2023-04-29T04:30:07.840Z,13.93
2023-04-29T04:32:48.081Z,12.60
2023-04-29T04:35:28.967Z,20.95
2023-04-29T04:38:05.535Z,20.30
2023-04-29T04:40:45.918Z,21.85
2023-04-29T04:43:46.246Z,19.77
2023-04-29T04:46:31.609Z,23.88
2023-04-29T04:49:17.316Z,22.13
2023-04-29T04:54:38.979Z,18.13
2023-04-29T04:57:24.961Z,23.80
2023-04-29T05:00:07.201Z,17.02
2023-04-29T05:02:42.279Z,15.77
2023-04-29T05:05:19.992Z,21.60
2023-04-29T05:07:58.381Z,24.77
2023-04-29T05:10:44.572Z,25.33
2023-04-29T05:13:29.140Z,26.77
2023-04-29T05:16:13.079Z,28.30
2023-04-29T05:18:56.803Z,25.25
2023-04-29T05:21:36.781Z,21.38
2023-04-29T05:24:09.475Z,22.75
2023-04-29T05:26:52.110Z,22.85
2023-04-29T05:29:28.154Z,21.85
2023-04-29T05:32:13.799Z,20.05
2023-04-29T05:34:55.073Z,23.50
2023-04-29T05:37:33.886Z,22.48
2023-04-29T05:40:26.385Z,19.70
2023-04-29T05:43:06.112Z,18.08
2023-04-29T05:45:45.422Z,20.83
2023-04-29T05:48:25.390Z,17.83
2023-04-29T05:50:58.712Z,19.42
2023-04-29T05:53:41.042Z,15.23
2023-04-29T05:56:20.257Z,21.00
2023-04-29T05:58:59.568Z,19.35
2023-04-29T06:01:37.584Z,20.85
2023-04-29T06:04:25.408Z,18.70
2023-04-29T06:07:23.020Z,19.55
2023-04-29T06:10:03.034Z,22.40
2023-04-29T06:12:45.171Z,24.25
2023-04-29T06:15:21.233Z,21.70
2023-04-29T06:18:03.981Z,17.25
2023-04-29T06:20:44.257Z,19.95
2023-04-29T06:23:28.171Z,23.35
2023-04-29T06:26:06.949Z,19.08
2023-04-29T06:28:44.744Z,20.88
2023-04-29T06:31:21.878Z,20.15
2023-04-29T06:33:59.417Z,27.73
2023-04-29T06:36:37.145Z,24.05
2023-04-29T06:39:51.990Z,27.45
2023-04-29T06:42:47.780Z,25.20
2023-04-29T06:45:46.374Z,26.33
2023-04-29T06:48:49.472Z,29.42
2023-04-29T06:51:33.616Z,26.45
2023-04-29T06:56:58.595Z,21.98
2023-04-29T06:59:39.418Z,23.23
2023-04-29T07:02:22.231Z,27.15
2023-04-29T07:04:58.718Z,25.00
2023-04-29T07:07:33.225Z,25.75
2023-04-29T07:10:11.658Z,35.67
2023-04-29T07:12:46.811Z,39.00
2023-04-29T07:15:23.305Z,33.90
2023-04-29T07:18:05.931Z,39.55
2023-04-29T07:20:51.373Z,30.60
2023-04-29T07:23:37.156Z,25.95
2023-04-29T07:26:22.791Z,21.42
2023-04-29T07:28:59.973Z,20.00
2023-04-29T07:31:41.567Z,17.30
2023-04-29T07:34:27.583Z,19.67
2023-04-29T07:36:58.390Z,15.38
2023-04-29T07:39:35.612Z,23.35
2023-04-29T07:42:21.539Z,20.75
2023-04-29T07:45:02.364Z,17.50
2023-04-29T07:47:38.588Z,20.70
2023-04-29T07:50:16.931Z,28.27
2023-04-29T07:52:55.172Z,21.90
2023-04-29T07:55:36.584Z,22.15
2023-04-29T07:58:14.474Z,16.70
2023-04-29T08:00:53.819Z,17.40
2023-04-29T08:03:41.839Z,16.23
2023-04-29T08:06:21.130Z,18.25
2023-04-29T08:08:56.638Z,15.63
2023-04-29T08:11:35.100Z,17.02
2023-04-29T08:14:24.096Z,14.02
2023-04-29T08:17:07.467Z,17.63
2023-04-29T08:19:48.295Z,18.77
2023-04-29T08:22:30.812Z,15.10
2023-04-29T08:25:05.272Z,16.65
2023-04-29T08:27:45.923Z,16.13
2023-04-29T08:30:38.017Z,16.92
2023-04-29T08:33:22.432Z,19.58
2023-04-29T08:36:06.068Z,19.77
2023-04-29T08:38:41.840Z,24.35
2023-04-29T08:41:24.345Z,31.63
2023-04-29T08:44:02.346Z,25.45
2023-04-29T08:46:37.933Z,26.20
2023-04-29T08:49:18.590Z,17.77
2023-04-29T08:51:49.512Z,22.27
2023-04-29T08:54:20.786Z,13.90
2023-04-29T08:59:36.155Z,14.98
2023-04-29T09:02:13.830Z,14.80
2023-04-29T09:05:12.271Z,15.90
2023-04-29T09:07:53.942Z,13.98
2023-04-29T09:10:29.487Z,12.32
2023-04-29T09:13:02.756Z,13.93
2023-04-29T09:15:44.190Z,16.38
2023-04-29T09:18:46.869Z,22.30
2023-04-29T09:21:35.092Z,18.85
2023-04-29T09:24:27.781Z,13.48
2023-04-29T09:27:06.405Z,14.20
2023-04-29T09:30:08.381Z,17.90
2023-04-29T09:32:49.195Z,16.55
2023-04-29T09:35:29.768Z,16.05
2023-04-29T09:38:16.433Z,16.67
2023-04-29T09:40:59.525Z,14.60
2023-04-29T09:43:43.069Z,16.77
2023-04-29T09:46:24.602Z,17.50
2023-04-29T09:49:04.600Z,12.52
2023-04-29T09:51:59.029Z,11.70
2023-04-29T09:54:39.084Z,15.82
2023-04-29T09:57:19.280Z,9.02
2023-04-29T09:59:58.959Z,16.35
2023-04-29T10:02:37.738Z,12.18
2023-04-29T10:05:16.575Z,14.10
2023-04-29T10:07:51.712Z,18.58
2023-04-29T10:10:28.524Z,15.35
2023-04-29T10:13:11.360Z,13.43
2023-04-29T10:16:14.720Z,11.68
2023-04-29T10:19:02.423Z,12.50
2023-04-29T10:21:36.742Z,9.20
2023-04-29T10:24:14.992Z,13.15
2023-04-29T10:26:57.041Z,11.65
2023-04-29T10:29:43.052Z,12.05
2023-04-29T10:32:21.633Z,15.15
2023-04-29T10:34:59.514Z,14.38
2023-04-29T10:37:34.588Z,9.38
2023-04-29T10:40:26.575Z,9.90
2023-04-29T10:43:06.168Z,14.73
2023-04-29T10:45:41.436Z,8.13
2023-04-29T10:48:21.079Z,13.32
2023-04-29T10:51:18.150Z,13.68
2023-04-29T10:54:14.900Z,13.65
2023-04-29T10:56:56.671Z,17.65
2023-04-29T10:59:51.943Z,10.20
2023-04-29T11:02:27.697Z,10.60
2023-04-29T11:05:09.230Z,12.88
2023-04-29T11:07:49.688Z,13.88
2023-04-29T11:10:24.334Z,8.63
2023-04-29T11:13:31.854Z,13.35
2023-04-29T11:16:12.437Z,14.10
2023-04-29T11:19:05.814Z,12.93
2023-04-29T11:21:48.245Z,13.70
2023-04-29T11:24:27.750Z,9.43
2023-04-29T11:27:11.993Z,10.50
2023-04-29T11:29:55.881Z,12.30
2023-04-29T11:32:40.329Z,8.27
2023-04-29T11:35:20.458Z,13.45
2023-04-29T11:37:56.725Z,10.23
2023-04-29T11:40:34.407Z,8.07
2023-04-29T11:43:15.208Z,14.73
2023-04-29T11:45:55.068Z,10.75
2023-04-29T11:48:30.517Z,11.38
2023-04-29T11:51:05.794Z,10.45
2023-04-29T11:53:54.646Z,11.27
2023-04-29T11:56:30.319Z,8.23
2023-04-29T11:59:07.496Z,10.75
2023-04-29T12:01:50.869Z,9.05
2023-04-29T12:04:33.536Z,8.88
2023-04-29T12:07:10.302Z,10.32
2023-04-29T12:09:57.265Z,8.43
2023-04-29T12:12:37.032Z,12.07
2023-04-29T12:15:10.621Z,7.50
2023-04-29T12:17:54.788Z,11.60
2023-04-29T12:20:39.909Z,11.45
2023-04-29T12:23:27.549Z,9.57
2023-04-29T12:26:05.246Z,12.07
2023-04-29T12:28:49.395Z,52.25
2023-04-29T12:31:21.568Z,10.45
2023-04-29T12:33:59.600Z,13.38
2023-04-29T12:36:32.950Z,8.82
2023-04-29T12:39:16.004Z,14.60
2023-04-29T12:42:07.549Z,14.57
2023-04-29T12:44:50.982Z,9.73
2023-04-29T12:47:34.967Z,9.15
2023-04-29T12:52:57.785Z,10.00
2023-04-29T12:55:32.819Z,14.77
2023-04-29T12:58:15.908Z,11.25
2023-04-29T13:00:50.525Z,8.65
2023-04-29T13:03:32.013Z,9.38
2023-04-29T13:06:14.750Z,10.07
2023-04-29T13:09:02.899Z,10.63
2023-04-29T13:11:39.655Z,17.25
2023-04-29T13:14:14.951Z,9.77
2023-04-29T13:16:55.629Z,16.30
2023-04-29T13:19:49.538Z,7.20
2023-04-29T13:22:32.694Z,7.85
2023-04-29T13:25:11.476Z,8.23
2023-04-29T13:27:49.432Z,9.52
2023-04-29T13:30:25.698Z,9.88
2023-04-29T13:33:05.008Z,8.20
2023-04-29T13:35:51.206Z,9.45
2023-04-29T13:38:30.368Z,10.38
2023-04-29T13:41:16.399Z,7.78
2023-04-29T13:44:02.817Z,7.40
2023-04-29T13:46:52.203Z,8.25
2023-04-29T13:50:03.384Z,6.70
2023-04-29T13:53:10.762Z,5.78
2023-04-29T13:58:48.856Z,7.57
2023-04-29T14:03:49.685Z,8.43
2023-04-29T14:06:30.474Z,11.25
2023-04-29T14:09:06.171Z,7.95
2023-04-29T14:11:44.489Z,8.63
2023-04-29T14:14:30.756Z,7.82
2023-04-29T14:17:11.154Z,10.50
2023-04-29T14:19:52.046Z,8.48
2023-04-29T14:22:24.455Z,9.27
2023-04-29T14:25:05.084Z,9.60
2023-04-29T14:27:46.491Z,13.20
2023-04-29T14:30:13.566Z,5.97
2023-04-29T14:32:49.336Z,7.28
2023-04-29T14:35:26.324Z,7.20
2023-04-29T14:38:07.597Z,6.60
2023-04-29T14:40:39.143Z,7.90
2023-04-29T14:43:22.140Z,11.40
2023-04-29T14:46:08.817Z,8.90
2023-04-29T14:48:52.017Z,12.65
2023-04-29T14:51:29.523Z,7.47
2023-04-29T14:54:12.592Z,8.27
2023-04-29T14:56:41.658Z,7.65
2023-04-29T14:59:13.768Z,5.00
2023-04-29T15:01:51.660Z,7.88
2023-04-29T15:04:27.901Z,8.55
2023-04-29T15:07:03.506Z,6.93
2023-04-29T15:09:33.490Z,8.10
2023-04-29T15:12:19.597Z,6.20
2023-04-29T15:14:59.118Z,7.32
2023-04-29T15:17:41.837Z,11.27
2023-04-29T15:20:19.248Z,11.23
2023-04-29T15:23:00.346Z,9.88
2023-04-29T15:25:40.712Z,4.80
2023-04-29T15:28:23.730Z,6.57
2023-04-29T15:31:05.630Z,13.65
2023-04-29T15:33:46.219Z,9.48
2023-04-29T15:36:33.534Z,8.03
2023-04-29T15:39:19.477Z,12.10
2023-04-29T15:41:53.955Z,10.35
2023-04-29T15:44:37.499Z,8.20
2023-04-29T15:47:22.800Z,6.70
2023-04-29T15:50:01.323Z,8.05
2023-04-29T15:52:39.609Z,8.45
2023-04-29T15:55:12.113Z,7.78
2023-04-29T15:57:51.506Z,12.45
2023-04-29T16:00:30.230Z,8.02
2023-04-29T16:03:02.547Z,6.57
2023-04-29T16:05:38.776Z,8.82
2023-04-29T16:08:19.900Z,13.75
2023-04-29T16:10:52.374Z,12.23
2023-04-29T16:13:29.880Z,15.35
2023-04-29T16:16:08.647Z,11.30
2023-04-29T16:18:40.672Z,5.47
2023-04-29T16:21:15.849Z,7.25
2023-04-29T16:23:47.918Z,9.25
2023-04-29T16:26:28.773Z,7.03
2023-04-29T16:29:13.409Z,7.72
2023-04-29T16:31:51.177Z,9.48
2023-04-29T16:34:29.041Z,8.30
2023-04-29T16:37:04.420Z,6.57
2023-04-29T16:39:45.153Z,9.77
2023-04-29T16:42:18.038Z,8.65
2023-04-29T16:44:56.174Z,9.10
2023-04-29T16:47:41.332Z,12.60
2023-04-29T16:50:18.834Z,8.82
2023-04-29T16:52:55.733Z,13.32
2023-04-29T16:55:30.640Z,14.88
2023-04-29T16:58:17.166Z,18.60
2023-04-29T17:00:56.488Z,13.57
2023-04-29T17:03:33.792Z,12.63
2023-04-29T17:06:11.557Z,15.15
2023-04-29T17:08:54.656Z,22.10
2023-04-29T17:11:35.936Z,19.92
2023-04-29T17:14:18.503Z,19.10
2023-04-29T17:16:52.619Z,18.67
2023-04-29T17:19:24.692Z,15.43
2023-04-29T17:22:05.162Z,21.08
2023-04-29T17:24:41.757Z,20.30
2023-04-29T17:27:22.511Z,39.00
2023-04-29T17:30:01.562Z,45.80
2023-04-29T17:32:39.055Z,54.28
2023-04-29T17:35:15.146Z,58.78
2023-04-29T17:37:48.924Z,69.45
2023-04-29T17:42:54.563Z,53.92
2023-04-29T17:45:33.550Z,45.00
2023-04-29T17:48:06.778Z,43.55
2023-04-29T17:50:47.770Z,33.00
2023-04-29T17:53:33.490Z,17.33
2023-04-29T17:56:15.377Z,14.70
2023-04-29T17:58:53.399Z,17.65
2023-04-29T18:01:26.747Z,16.88
2023-04-29T18:04:01.139Z,17.95
2023-04-29T18:06:41.193Z,23.45
2023-04-29T18:09:17.494Z,20.73
2023-04-29T18:11:50.032Z,20.38
2023-04-29T18:14:31.168Z,18.73
2023-04-29T18:17:11.780Z,14.32
2023-04-29T18:19:51.768Z,17.20
2023-04-29T18:22:36.879Z,17.50
2023-04-29T18:25:17.418Z,13.45
2023-04-29T18:28:07.601Z,18.83
2023-04-29T18:30:57.347Z,17.00
2023-04-29T18:33:37.710Z,18.20
2023-04-29T18:36:30.148Z,27.08
2023-04-29T18:39:07.897Z,22.20
2023-04-29T18:41:53.888Z,18.50
2023-04-29T18:44:31.454Z,14.85
2023-04-29T18:47:02.973Z,12.90
2023-04-29T18:49:43.479Z,17.45
2023-04-29T18:52:37.124Z,21.00
2023-04-29T18:55:11.154Z,18.63
2023-04-29T18:57:54.802Z,16.00
2023-04-29T19:00:27.655Z,18.58
2023-04-29T19:03:16.625Z,24.98
2023-04-29T19:06:00.644Z,18.23
2023-04-29T19:08:39.334Z,26.27
2023-04-29T19:11:15.708Z,22.00
2023-04-29T19:13:47.319Z,17.98
2023-04-29T19:16:17.616Z,18.10
2023-04-29T19:18:53.131Z,24.27
2023-04-29T19:21:36.941Z,27.00
2023-04-29T19:24:15.310Z,24.70
2023-04-29T19:27:08.809Z,28.63
2023-04-29T19:30:01.094Z,30.42
2023-04-29T19:32:42.087Z,27.00
2023-04-29T19:35:22.300Z,27.73
2023-04-29T19:38:00.418Z,27.15
2023-04-29T19:40:41.608Z,28.38
2023-04-29T19:43:24.279Z,28.02
2023-04-29T19:46:10.487Z,31.38
2023-04-29T19:48:55.216Z,31.48
2023-04-29T19:51:41.453Z,34.63
2023-04-29T19:54:26.585Z,37.65
2023-04-29T19:57:07.478Z,40.22
2023-04-29T19:59:46.748Z,35.88
2023-04-29T20:02:22.498Z,35.45
2023-04-29T20:05:20.326Z,33.65
2023-04-29T20:08:08.199Z,35.20
2023-04-29T20:10:48.822Z,34.33
2023-04-29T20:13:24.692Z,39.45
2023-04-29T20:16:08.068Z,44.58
2023-04-29T20:18:45.752Z,42.75
2023-04-29T20:21:22.321Z,48.20
2023-04-29T20:24:01.442Z,41.75
2023-04-29T20:26:44.748Z,40.67
2023-04-29T20:32:19.131Z,38.83
2023-04-29T20:35:00.456Z,40.30
2023-04-29T20:37:50.182Z,40.08
2023-04-29T20:40:31.348Z,53.53
2023-04-29T20:43:13.501Z,46.70
2023-04-29T20:46:00.473Z,54.00
2023-04-29T20:48:39.621Z,42.47
2023-04-29T20:51:16.685Z,42.55
2023-04-29T20:53:55.167Z,41.08
2023-04-29T20:56:36.608Z,36.92
2023-04-29T20:59:16.676Z,39.05
2023-04-29T21:01:58.545Z,30.15
2023-04-29T21:04:49.493Z,34.13
2023-04-29T21:07:34.773Z,32.20
2023-04-29T21:10:17.705Z,30.80
2023-04-29T21:12:57.441Z,27.67
2023-04-29T21:15:40.863Z,30.70
2023-04-29T21:18:23.906Z,34.47
2023-04-29T21:21:13.460Z,31.88
2023-04-29T21:23:56.661Z,32.72
2023-04-29T21:26:43.332Z,39.20
2023-04-29T21:29:28.655Z,35.58
2023-04-29T21:32:07.696Z,42.40
2023-04-29T21:34:50.107Z,40.47
2023-04-29T21:37:28.843Z,39.88
2023-04-29T21:40:18.926Z,40.40
2023-04-29T21:42:57.189Z,45.20
2023-04-29T21:45:34.346Z,48.08
2023-04-29T21:48:21.974Z,53.63
2023-04-29T21:51:05.040Z,47.45
2023-04-29T21:53:45.849Z,48.88
2023-04-29T21:56:29.653Z,42.65
2023-04-29T21:59:08.402Z,43.83
2023-04-29T22:01:52.327Z,44.75
2023-04-29T22:04:37.528Z,44.50
2023-04-29T22:07:21.519Z,41.80
2023-04-29T22:12:47.243Z,39.08
2023-04-29T22:15:28.720Z,40.25
2023-04-29T22:18:12.390Z,38.88
2023-04-29T22:20:49.852Z,33.58
2023-04-29T22:23:19.300Z,36.28
2023-04-29T22:25:59.485Z,35.05
2023-04-29T22:28:37.147Z,33.65
2023-04-29T22:31:18.922Z,32.67
2023-04-29T22:33:46.534Z,34.55
2023-04-29T22:36:29.793Z,31.48
2023-04-29T22:39:04.527Z,32.95
2023-04-29T22:41:37.085Z,30.58
2023-04-29T22:44:34.418Z,30.77
2023-04-29T22:47:21.508Z,31.35
2023-04-29T22:50:06.923Z,34.50
2023-04-29T22:52:47.787Z,31.50
2023-04-29T22:55:35.681Z,29.50
2023-04-29T22:58:13.868Z,32.35
2023-04-29T23:01:11.988Z,37.72
2023-04-29T23:03:52.895Z,33.88
2023-04-29T23:06:24.008Z,27.27
2023-04-29T23:09:01.939Z,28.90
2023-04-29T23:11:43.169Z,32.88
2023-04-29T23:14:41.327Z,32.80
2023-04-29T23:17:13.965Z,33.10
2023-04-29T23:19:59.686Z,32.85
2023-04-29T23:22:56.304Z,33.70
2023-04-29T23:25:30.826Z,37.58
2023-04-29T23:28:27.817Z,33.35
2023-04-29T23:31:05.781Z,31.08
2023-04-29T23:33:41.111Z,38.17
2023-04-29T23:36:24.365Z,33.60
2023-04-29T23:39:04.212Z,29.55
2023-04-29T23:41:42.298Z,30.05
2023-04-29T23:44:20.333Z,34.38
2023-04-29T23:46:54.847Z,32.65
2023-04-29T23:49:32.952Z,35.13
2023-04-29T23:52:13.017Z,35.88
2023-04-29T23:54:55.262Z,31.48
2023-04-29T23:57:36.239Z,32.60
